sensor_id;sensor_type;location;lat;lon;timestamp;pressure;altitude;pressure_sealevel;temperature;humidity
37648;BME280;23490;53.656;10.076;2023-04-02T00:04:43;99818.69;;;-145.95;86.23
37648;BME280;23490;53.656;10.076;2023-04-02T00:07:24;99839.34;;;-145.95;86.47
37648;BME280;23490;53.656;10.076;2023-04-02T00:09:56;99814.56;;;-145.95;85.53
37648;BME280;23490;53.656;10.076;2023-04-02T00:12:22;99806.28;;;-145.95;84.69
37648;BME280;23490;53.656;10.076;2023-04-02T00:14:53;99847.59;;;-145.95;85.88
37648;BME280;23490;53.656;10.076;2023-04-02T00:17:22;99851.72;;;-145.95;85.37
37648;BME280;23490;53.656;10.076;2023-04-02T00:19:53;99855.84;;;-145.95;84.61
37648;BME280;23490;53.656;10.076;2023-04-02T00:22:26;99864.13;;;-145.95;85.27
37648;BME280;23490;53.656;10.076;2023-04-02T00:24:53;99831.06;;;-145.95;85.02
37648;BME280;23490;53.656;10.076;2023-04-02T00:27:19;99816.63;;;-145.95;86.33
37648;BME280;23490;53.656;10.076;2023-04-02T00:29:47;99826.94;;;-145.95;85.08
37648;BME280;23490;53.656;10.076;2023-04-02T00:32:28;99826.94;;;-145.95;84.79
37648;BME280;23490;53.656;10.076;2023-04-02T00:34:56;99847.59;;;-145.95;83.71
37648;BME280;23490;53.656;10.076;2023-04-02T00:37:25;99839.34;;;-145.95;84.09
37648;BME280;23490;53.656;10.076;2023-04-02T00:40:00;99831.06;;;-145.95;85.29
37648;BME280;23490;53.656;10.076;2023-04-02T00:42:31;99835.19;;;-145.95;83.95
37648;BME280;23490;53.656;10.076;2023-04-02T00:44:59;99822.81;;;-145.95;84.37
37648;BME280;23490;53.656;10.076;2023-04-02T00:47:34;99791.81;;;-145.95;83.04
37648;BME280;23490;53.656;10.076;2023-04-02T00:52:36;99806.28;;;-145.95;82.58
37648;BME280;23490;53.656;10.076;2023-04-02T00:55:07;99847.59;;;-145.95;81.63
37648;BME280;23490;53.656;10.076;2023-04-02T00:57:40;99818.69;;;-145.95;82.78
37648;BME280;23490;53.656;10.076;2023-04-02T01:00:22;99818.69;;;-145.95;82.73
37648;BME280;23490;53.656;10.076;2023-04-02T01:05:41;99822.81;;;-145.95;83.09
37648;BME280;23490;53.656;10.076;2023-04-02T01:11:06;99839.34;;;-145.95;83.62
37648;BME280;23490;53.656;10.076;2023-04-02T01:13:41;99810.41;;;-145.95;82.74
37648;BME280;23490;53.656;10.076;2023-04-02T01:16:36;99847.59;;;-145.95;83.59
37648;BME280;23490;53.656;10.076;2023-04-02T01:22:25;99802.16;;;-145.95;83.67
37648;BME280;23490;53.656;10.076;2023-04-02T01:25:01;99814.56;;;-145.95;83.89
37648;BME280;23490;53.656;10.076;2023-04-02T01:28:05;99864.13;;;-145.95;84.19
37648;BME280;23490;53.656;10.076;2023-04-02T01:30:34;99851.72;;;-145.95;84.72
37648;BME280;23490;53.656;10.076;2023-04-02T01:33:01;99835.19;;;-145.95;84.79
37648;BME280;23490;53.656;10.076;2023-04-02T01:35:30;99847.59;;;-145.95;85.07
37648;BME280;23490;53.656;10.076;2023-04-02T01:38:33;99851.72;;;-145.95;83.86
37648;BME280;23490;53.656;10.076;2023-04-02T01:41:12;99837.28;;;-145.95;85.22
37648;BME280;23490;53.656;10.076;2023-04-02T01:43:45;99860.00;;;-145.95;86.01
37648;BME280;23490;53.656;10.076;2023-04-02T01:48:48;99769.13;;;-145.95;85.87
37648;BME280;23490;53.656;10.076;2023-04-02T01:51:43;99843.47;;;-145.95;85.92
37648;BME280;23490;53.656;10.076;2023-04-02T01:54:09;99857.94;;;-145.95;85.67
37648;BME280;23490;53.656;10.076;2023-04-02T01:56:38;99822.81;;;-145.95;85.15
37648;BME280;23490;53.656;10.076;2023-04-02T01:59:06;99818.69;;;-145.95;85.66
37648;BME280;23490;53.656;10.076;2023-04-02T02:01:36;99816.63;;;-145.95;85.80
37648;BME280;23490;53.656;10.076;2023-04-02T02:04:03;99826.94;;;-145.95;86.41
37648;BME280;23490;53.656;10.076;2023-04-02T02:06:29;99839.34;;;-145.95;86.70
37648;BME280;23490;53.656;10.076;2023-04-02T02:08:58;99831.06;;;-145.95;86.91
37648;BME280;23490;53.656;10.076;2023-04-02T02:11:27;99835.19;;;-145.95;87.87
37648;BME280;23490;53.656;10.076;2023-04-02T02:13:59;99822.81;;;-145.95;87.28
37648;BME280;23490;53.656;10.076;2023-04-02T02:16:26;99864.13;;;-145.95;87.96
37648;BME280;23490;53.656;10.076;2023-04-02T02:18:55;99876.50;;;-145.95;86.97
37648;BME280;23490;53.656;10.076;2023-04-02T02:23:52;99855.84;;;-145.95;88.30
37648;BME280;23490;53.656;10.076;2023-04-02T02:26:18;99851.72;;;-145.95;87.73
37648;BME280;23490;53.656;10.076;2023-04-02T02:28:48;99862.06;;;-145.95;87.17
37648;BME280;23490;53.656;10.076;2023-04-02T02:31:22;99835.19;;;-145.95;88.66
37648;BME280;23490;53.656;10.076;2023-04-02T02:33:56;99826.94;;;-145.95;88.48
37648;BME280;23490;53.656;10.076;2023-04-02T02:36:27;99843.47;;;-145.95;87.27
37648;BME280;23490;53.656;10.076;2023-04-02T02:39:12;99835.19;;;-145.95;88.03
37648;BME280;23490;53.656;10.076;2023-04-02T02:41:44;99831.06;;;-145.95;88.11
37648;BME280;23490;53.656;10.076;2023-04-02T02:44:24;99857.94;;;-145.95;88.47
37648;BME280;23490;53.656;10.076;2023-04-02T02:47:09;99855.84;;;-145.95;88.42
37648;BME280;23490;53.656;10.076;2023-04-02T02:49:43;99864.13;;;-145.95;88.43
37648;BME280;23490;53.656;10.076;2023-04-02T02:52:28;99862.06;;;-145.95;88.20
37648;BME280;23490;53.656;10.076;2023-04-02T02:55:01;99851.72;;;-145.95;88.06
37648;BME280;23490;53.656;10.076;2023-04-02T02:57:34;99833.13;;;-145.95;88.88
37648;BME280;23490;53.656;10.076;2023-04-02T03:00:04;99860.00;;;-145.95;89.61
37648;BME280;23490;53.656;10.076;2023-04-02T03:02:34;99829.00;;;-145.95;90.46
37648;BME280;23490;53.656;10.076;2023-04-02T03:05:00;99849.66;;;-145.95;89.95
37648;BME280;23490;53.656;10.076;2023-04-02T03:07:27;99831.06;;;-145.95;90.53
37648;BME280;23490;53.656;10.076;2023-04-02T03:10:12;99868.25;;;-145.95;90.06
37648;BME280;23490;53.656;10.076;2023-04-02T03:13:00;99868.25;;;-145.95;89.64
37648;BME280;23490;53.656;10.076;2023-04-02T03:21:24;99822.81;;;-145.95;90.40
37648;BME280;23490;53.656;10.076;2023-04-02T03:23:56;99864.13;;;-145.95;91.54
37648;BME280;23490;53.656;10.076;2023-04-02T03:26:29;99872.38;;;-145.95;91.52
37648;BME280;23490;53.656;10.076;2023-04-02T03:29:27;99847.59;;;-145.95;90.46
37648;BME280;23490;53.656;10.076;2023-04-02T03:32:09;99872.38;;;-145.95;90.63
37648;BME280;23490;53.656;10.076;2023-04-02T03:34:42;99855.84;;;-145.95;91.29
37648;BME280;23490;53.656;10.076;2023-04-02T03:37:23;99814.56;;;-145.95;90.98
37648;BME280;23490;53.656;10.076;2023-04-02T03:42:21;99888.91;;;-145.95;91.74
37648;BME280;23490;53.656;10.076;2023-04-02T03:44:54;99822.81;;;-145.95;92.99
37648;BME280;23490;53.656;10.076;2023-04-02T03:52:41;99870.31;;;-145.95;92.11
37648;BME280;23490;53.656;10.076;2023-04-02T03:55:23;99851.72;;;-145.95;92.08
37648;BME280;23490;53.656;10.076;2023-04-02T03:58:05;99874.44;;;-145.95;92.93
37648;BME280;23490;53.656;10.076;2023-04-02T04:03:38;99843.47;;;-145.95;91.95
37648;BME280;23490;53.656;10.076;2023-04-02T04:06:09;99829.00;;;-145.95;91.43
37648;BME280;23490;53.656;10.076;2023-04-02T04:08:41;99826.94;;;-145.95;92.53
37648;BME280;23490;53.656;10.076;2023-04-02T04:11:14;99849.66;;;-145.95;92.91
37648;BME280;23490;53.656;10.076;2023-04-02T04:13:46;99884.78;;;-145.95;93.64
37648;BME280;23490;53.656;10.076;2023-04-02T04:16:20;99886.84;;;-145.95;93.25
37648;BME280;23490;53.656;10.076;2023-04-02T04:21:27;99880.66;;;-145.95;93.63
37648;BME280;23490;53.656;10.076;2023-04-02T04:24:04;99855.84;;;-145.95;93.27
37648;BME280;23490;53.656;10.076;2023-04-02T04:29:26;99872.38;;;-145.95;94.23
37648;BME280;23490;53.656;10.076;2023-04-02T04:32:07;99843.47;;;-145.95;93.18
37648;BME280;23490;53.656;10.076;2023-04-02T04:34:39;99839.34;;;-145.95;93.00
37648;BME280;23490;53.656;10.076;2023-04-02T04:37:22;99835.19;;;-145.95;92.73
37648;BME280;23490;53.656;10.076;2023-04-02T04:39:55;99876.50;;;-145.95;93.51
37648;BME280;23490;53.656;10.076;2023-04-02T04:42:24;99876.50;;;-145.95;93.28
37648;BME280;23490;53.656;10.076;2023-04-02T04:44:59;99835.19;;;-145.95;93.42
37648;BME280;23490;53.656;10.076;2023-04-02T04:47:36;99860.00;;;-145.95;93.72
37648;BME280;23490;53.656;10.076;2023-04-02T04:50:20;99847.59;;;-145.95;92.72
37648;BME280;23490;53.656;10.076;2023-04-02T04:52:47;99851.72;;;-145.95;93.26
37648;BME280;23490;53.656;10.076;2023-04-02T04:55:28;99847.59;;;-145.95;94.25
37648;BME280;23490;53.656;10.076;2023-04-02T04:58:02;99895.09;;;-145.95;92.30
37648;BME280;23490;53.656;10.076;2023-04-02T05:00:39;99831.06;;;-145.95;92.64
37648;BME280;23490;53.656;10.076;2023-04-02T05:03:31;99843.47;;;-145.95;92.75
37648;BME280;23490;53.656;10.076;2023-04-02T05:06:07;99843.47;;;-145.95;92.70
37648;BME280;23490;53.656;10.076;2023-04-02T05:08:36;99843.47;;;-145.95;93.08
37648;BME280;23490;53.656;10.076;2023-04-02T05:11:10;99822.81;;;-145.95;91.80
37648;BME280;23490;53.656;10.076;2023-04-02T05:16:22;99814.56;;;-145.95;89.86
37648;BME280;23490;53.656;10.076;2023-04-02T05:21:40;99783.56;;;-145.95;87.85
37648;BME280;23490;53.656;10.076;2023-04-02T05:24:32;99845.53;;;-145.95;87.85
37648;BME280;23490;53.656;10.076;2023-04-02T05:27:11;99808.34;;;-145.95;87.13
37648;BME280;23490;53.656;10.076;2023-04-02T05:29:43;99831.06;;;-145.95;87.21
37648;BME280;23490;53.656;10.076;2023-04-02T05:32:20;99773.25;;;-145.95;86.22
37648;BME280;23490;53.656;10.076;2023-04-02T05:34:52;99795.97;;;-145.95;86.95
37648;BME280;23490;53.656;10.076;2023-04-02T05:37:21;99781.50;;;-145.95;85.23
37648;BME280;23490;53.656;10.076;2023-04-02T05:39:56;99773.25;;;-145.95;84.75
37648;BME280;23490;53.656;10.076;2023-04-02T05:42:24;99756.72;;;-145.95;84.86
37648;BME280;23490;53.656;10.076;2023-04-02T05:45:02;99764.97;;;-145.95;84.48
37648;BME280;23490;53.656;10.076;2023-04-02T05:47:32;99756.72;;;-145.95;84.52
37648;BME280;23490;53.656;10.076;2023-04-02T05:52:33;99764.97;;;-145.95;84.23
37648;BME280;23490;53.656;10.076;2023-04-02T05:57:42;99698.88;;;-145.95;83.04
37648;BME280;23490;53.656;10.076;2023-04-02T06:00:22;99731.94;;;-145.95;81.67
37648;BME280;23490;53.656;10.076;2023-04-02T06:02:56;99756.72;;;-145.95;82.37
37648;BME280;23490;53.656;10.076;2023-04-02T06:05:37;99756.72;;;-145.95;82.86
37648;BME280;23490;53.656;10.076;2023-04-02T06:08:12;99760.84;;;-145.95;82.16
37648;BME280;23490;53.656;10.076;2023-04-02T06:11:00;99736.06;;;-145.95;81.35
37648;BME280;23490;53.656;10.076;2023-04-02T06:13:29;99731.94;;;-145.95;79.72
37648;BME280;23490;53.656;10.076;2023-04-02T06:15:54;99719.53;;;-145.95;79.99
37648;BME280;23490;53.656;10.076;2023-04-02T06:18:32;99713.34;;;-145.95;78.75
37648;BME280;23490;53.656;10.076;2023-04-02T06:21:00;99692.69;;;-145.95;77.84
37648;BME280;23490;53.656;10.076;2023-04-02T06:23:46;99669.97;;;-145.95;78.92
37648;BME280;23490;53.656;10.076;2023-04-02T06:26:37;99686.50;;;-145.95;78.51
37648;BME280;23490;53.656;10.076;2023-04-02T06:29:20;99680.31;;;-145.95;76.98
37648;BME280;23490;53.656;10.076;2023-04-02T06:31:53;99624.53;;;-145.95;76.49
37648;BME280;23490;53.656;10.076;2023-04-02T06:34:22;99682.38;;;-145.95;76.31
37648;BME280;23490;53.656;10.076;2023-04-02T06:36:53;99626.59;;;-145.95;74.92
37648;BME280;23490;53.656;10.076;2023-04-02T06:39:22;99632.78;;;-145.95;74.60
37648;BME280;23490;53.656;10.076;2023-04-02T06:42:20;99612.16;;;-145.95;74.93
37648;BME280;23490;53.656;10.076;2023-04-02T06:44:43;99645.19;;;-145.95;74.34
37648;BME280;23490;53.656;10.076;2023-04-02T06:47:18;99612.16;;;-145.95;73.98
37648;BME280;23490;53.656;10.076;2023-04-02T06:50:02;99622.47;;;-145.95;72.63
37648;BME280;23490;53.656;10.076;2023-04-02T06:52:33;99624.53;;;-145.95;73.97
37648;BME280;23490;53.656;10.076;2023-04-02T06:55:09;99616.28;;;-145.95;72.21
37648;BME280;23490;53.656;10.076;2023-04-02T06:57:43;99601.81;;;-145.95;71.72
37648;BME280;23490;53.656;10.076;2023-04-02T07:02:47;99579.09;;;-145.95;71.38
37648;BME280;23490;53.656;10.076;2023-04-02T07:05:13;99577.03;;;-145.95;71.59
37648;BME280;23490;53.656;10.076;2023-04-02T07:07:39;99548.13;;;-145.95;69.34
37648;BME280;23490;53.656;10.076;2023-04-02T07:10:05;99554.31;;;-145.95;69.97
37648;BME280;23490;53.656;10.076;2023-04-02T07:12:33;99579.09;;;-145.95;69.46
37648;BME280;23490;53.656;10.076;2023-04-02T07:15:00;99537.78;;;-145.95;69.28
37648;BME280;23490;53.656;10.076;2023-04-02T07:17:25;99568.78;;;-145.95;68.40
37648;BME280;23490;53.656;10.076;2023-04-02T07:19:51;99546.06;;;-145.95;66.69
37648;BME280;23490;53.656;10.076;2023-04-02T07:22:17;99477.91;;;-145.95;67.17
37648;BME280;23490;53.656;10.076;2023-04-02T07:24:44;99513.00;;;-145.95;66.83
37648;BME280;23490;53.656;10.076;2023-04-02T07:27:10;99508.88;;;-145.95;67.13
37648;BME280;23490;53.656;10.076;2023-04-02T07:29:36;99546.06;;;-145.95;70.01
37648;BME280;23490;53.656;10.076;2023-04-02T07:32:07;99608.00;;;-145.95;69.48
37648;BME280;23490;53.656;10.076;2023-04-02T07:34:33;99603.88;;;-145.95;68.33
37648;BME280;23490;53.656;10.076;2023-04-02T07:36:58;99570.84;;;-145.95;67.62
37648;BME280;23490;53.656;10.076;2023-04-02T07:39:25;99558.44;;;-145.95;69.08
37648;BME280;23490;53.656;10.076;2023-04-02T07:41:52;99562.56;;;-145.95;68.03
37648;BME280;23490;53.656;10.076;2023-04-02T07:44:18;99521.28;;;-145.95;67.24
37648;BME280;23490;53.656;10.076;2023-04-02T07:46:44;99546.06;;;-145.95;66.96
37648;BME280;23490;53.656;10.076;2023-04-02T07:49:11;99562.56;;;-145.95;69.28
37648;BME280;23490;53.656;10.076;2023-04-02T07:51:36;99568.78;;;-145.95;68.93
37648;BME280;23490;53.656;10.076;2023-04-02T07:54:02;99570.84;;;-145.95;69.79
37648;BME280;23490;53.656;10.076;2023-04-02T07:56:29;99562.56;;;-145.95;69.67
37648;BME280;23490;53.656;10.076;2023-04-02T07:58:54;99579.09;;;-145.95;70.90
37648;BME280;23490;53.656;10.076;2023-04-02T08:01:23;99574.97;;;-145.95;71.37
37648;BME280;23490;53.656;10.076;2023-04-02T08:03:50;99610.06;;;-145.95;70.54
37648;BME280;23490;53.656;10.076;2023-04-02T08:06:15;99591.50;;;-145.95;70.71
37648;BME280;23490;53.656;10.076;2023-04-02T08:08:42;99612.16;;;-145.95;71.10
37648;BME280;23490;53.656;10.076;2023-04-02T08:11:08;99591.50;;;-145.95;69.99
37648;BME280;23490;53.656;10.076;2023-04-02T08:13:34;99533.66;;;-145.95;70.08
37648;BME280;23490;53.656;10.076;2023-04-02T08:16:04;99546.06;;;-145.95;69.23
37648;BME280;23490;53.656;10.076;2023-04-02T08:18:31;99504.75;;;-145.95;68.04
37648;BME280;23490;53.656;10.076;2023-04-02T08:20:59;99488.22;;;-145.95;65.45
37648;BME280;23490;53.656;10.076;2023-04-02T08:23:25;99442.78;;;-145.95;65.36
37648;BME280;23490;53.656;10.076;2023-04-02T08:25:52;99372.56;;;-145.95;64.05
37648;BME280;23490;53.656;10.076;2023-04-02T08:28:19;99407.69;;;-145.95;63.79
37648;BME280;23490;53.656;10.076;2023-04-02T08:30:45;99397.34;;;-145.95;61.83
37648;BME280;23490;53.656;10.076;2023-04-02T08:33:14;99337.47;;;-145.95;61.85
37648;BME280;23490;53.656;10.076;2023-04-02T08:35:39;99354.00;;;-145.95;63.03
37648;BME280;23490;53.656;10.076;2023-04-02T08:38:05;99273.44;;;-145.95;60.68
37648;BME280;23490;53.656;10.076;2023-04-02T08:40:38;99289.97;;;-145.95;61.56
37648;BME280;23490;53.656;10.076;2023-04-02T08:46:22;99225.94;;;-145.95;60.31
37648;BME280;23490;53.656;10.076;2023-04-02T08:48:54;99157.81;;;-145.95;59.94
37648;BME280;23490;53.656;10.076;2023-04-02T08:51:24;99219.75;;;-145.95;59.93
37648;BME280;23490;53.656;10.076;2023-04-02T08:53:52;99205.28;;;-145.95;59.72
37648;BME280;23490;53.656;10.076;2023-04-02T08:56:29;99279.63;;;-145.95;60.37
37648;BME280;23490;53.656;10.076;2023-04-02T08:59:06;99364.31;;;-145.95;62.63
37648;BME280;23490;53.656;10.076;2023-04-02T09:02:15;99422.13;;;-145.95;62.29
37648;BME280;23490;53.656;10.076;2023-04-02T09:04:44;99347.78;;;-145.95;63.76
37648;BME280;23490;53.656;10.076;2023-04-02T09:07:12;99316.81;;;-145.95;62.09
37648;BME280;23490;53.656;10.076;2023-04-02T09:09:42;99236.28;;;-145.95;60.21
37648;BME280;23490;53.656;10.076;2023-04-02T09:12:23;99153.66;;;-145.95;59.09
37648;BME280;23490;53.656;10.076;2023-04-02T09:18:17;99199.09;;;-145.95;58.19
37648;BME280;23490;53.656;10.076;2023-04-02T09:20:45;99194.97;;;-145.95;58.03
37648;BME280;23490;53.656;10.076;2023-04-02T09:23:22;99277.56;;;-145.95;57.23
37648;BME280;23490;53.656;10.076;2023-04-02T09:25:51;99184.66;;;-145.95;55.91
37648;BME280;23490;53.656;10.076;2023-04-02T09:28:18;99054.56;;;-145.95;56.21
37648;BME280;23490;53.656;10.076;2023-04-02T09:33:49;99046.28;;;-145.95;54.45
37648;BME280;23490;53.656;10.076;2023-04-02T09:36:37;99019.44;;;-145.95;53.29
37648;BME280;23490;53.656;10.076;2023-04-02T09:39:18;98967.81;;;-145.95;50.36
37648;BME280;23490;53.656;10.076;2023-04-02T09:41:44;99009.13;;;-145.95;50.72
37648;BME280;23490;53.656;10.076;2023-04-02T09:44:18;98967.81;;;-145.95;52.74
37648;BME280;23490;53.656;10.076;2023-04-02T09:46:49;98876.97;;;-145.95;50.75
37648;BME280;23490;53.656;10.076;2023-04-02T09:49:16;98971.94;;;-145.95;48.97
37648;BME280;23490;53.656;10.076;2023-04-02T09:51:51;99000.84;;;-145.95;49.61
37648;BME280;23490;53.656;10.076;2023-04-02T09:54:29;98874.91;;;-145.95;48.36
37648;BME280;23490;53.656;10.076;2023-04-02T09:57:02;98839.78;;;-145.95;49.14
37648;BME280;23490;53.656;10.076;2023-04-02T09:59:28;98810.88;;;-145.95;48.20
37648;BME280;23490;53.656;10.076;2023-04-02T10:04:41;98841.84;;;-145.95;50.35
37648;BME280;23490;53.656;10.076;2023-04-02T10:07:42;98876.97;;;-145.95;48.87
37648;BME280;23490;53.656;10.076;2023-04-02T10:12:52;98843.94;;;-145.95;50.94
37648;BME280;23490;53.656;10.076;2023-04-02T10:15:26;99093.78;;;-145.95;51.05
37648;BME280;23490;53.656;10.076;2023-04-02T10:18:05;99079.34;;;-145.95;50.75
37648;BME280;23490;53.656;10.076;2023-04-02T10:20:50;98872.84;;;-145.95;49.02
37648;BME280;23490;53.656;10.076;2023-04-02T10:23:17;98781.97;;;-145.95;49.35
37648;BME280;23490;53.656;10.076;2023-04-02T10:25:52;98893.47;;;-145.95;49.01
37648;BME280;23490;53.656;10.076;2023-04-02T10:28:59;98843.94;;;-145.95;47.35
37648;BME280;23490;53.656;10.076;2023-04-02T10:32:05;98740.69;;;-145.95;45.52
37648;BME280;23490;53.656;10.076;2023-04-02T10:34:38;98843.94;;;-145.95;47.60
37648;BME280;23490;53.656;10.076;2023-04-02T10:40:27;98971.94;;;-145.95;48.50
37648;BME280;23490;53.656;10.076;2023-04-02T10:45:50;98932.72;;;-145.95;48.25
37648;BME280;23490;53.656;10.076;2023-04-02T10:48:29;98773.72;;;-145.95;48.00
37648;BME280;23490;53.656;10.076;2023-04-02T10:51:30;98777.84;;;-145.95;46.59
37648;BME280;23490;53.656;10.076;2023-04-02T10:57:17;98761.34;;;-145.95;45.74
37648;BME280;23490;53.656;10.076;2023-04-02T11:05:36;98645.69;;;-145.95;41.25
37648;BME280;23490;53.656;10.076;2023-04-02T11:08:37;98713.84;;;-145.95;42.65
37648;BME280;23490;53.656;10.076;2023-04-02T11:11:12;98684.94;;;-145.95;42.18
37648;BME280;23490;53.656;10.076;2023-04-02T11:16:22;98649.84;;;-145.95;43.73
37648;BME280;23490;53.656;10.076;2023-04-02T11:24:30;98579.63;;;-145.95;42.94
37648;BME280;23490;53.656;10.076;2023-04-02T11:29:44;98497.03;;;-145.95;42.60
37648;BME280;23490;53.656;10.076;2023-04-02T11:32:26;98660.16;;;-145.95;44.84
37648;BME280;23490;53.656;10.076;2023-04-02T11:37:41;98476.41;;;-145.95;44.40
37648;BME280;23490;53.656;10.076;2023-04-02T11:42:49;98653.97;;;-145.95;43.18
37648;BME280;23490;53.656;10.076;2023-04-02T11:53:03;98649.84;;;-145.95;42.71
37648;BME280;23490;53.656;10.076;2023-04-02T11:55:33;98517.69;;;-145.95;41.83
37648;BME280;23490;53.656;10.076;2023-04-02T12:00:52;98484.66;;;-145.95;42.65
37648;BME280;23490;53.656;10.076;2023-04-02T12:06:20;98435.09;;;-145.95;41.43
37648;BME280;23490;53.656;10.076;2023-04-02T12:11:39;98492.91;;;-145.95;42.10
37648;BME280;23490;53.656;10.076;2023-04-02T12:16:53;98412.41;;;-145.95;41.19
37648;BME280;23490;53.656;10.076;2023-04-02T12:19:19;98220.38;;;-145.95;40.88
37648;BME280;23490;53.656;10.076;2023-04-02T12:21:45;98278.19;;;-145.95;40.68
37648;BME280;23490;53.656;10.076;2023-04-02T12:24:18;98439.22;;;-145.95;41.95
37648;BME280;23490;53.656;10.076;2023-04-02T12:26:45;98309.16;;;-145.95;40.77
37648;BME280;23490;53.656;10.076;2023-04-02T12:29:28;98317.44;;;-145.95;41.40
37648;BME280;23490;53.656;10.076;2023-04-02T12:31:55;98278.19;;;-145.95;40.82
37648;BME280;23490;53.656;10.076;2023-04-02T12:34:23;98108.91;;;-145.95;40.45
37648;BME280;23490;53.656;10.076;2023-04-02T12:36:57;98290.59;;;-145.95;42.89
37648;BME280;23490;53.656;10.076;2023-04-02T12:39:24;98660.16;;;-145.95;44.21
37648;BME280;23490;53.656;10.076;2023-04-02T12:41:50;98216.25;;;-145.95;40.00
37648;BME280;23490;53.656;10.076;2023-04-02T12:44:18;98224.53;;;-145.95;41.69
37648;BME280;23490;53.656;10.076;2023-04-02T12:46:46;98121.28;;;-145.95;40.13
37648;BME280;23490;53.656;10.076;2023-04-02T12:49:35;98090.34;;;-145.95;40.02
37648;BME280;23490;53.656;10.076;2023-04-02T12:52:10;98117.16;;;-145.95;39.60
37648;BME280;23490;53.656;10.076;2023-04-02T13:00:00;97980.91;;;-145.95;40.63
37648;BME280;23490;53.656;10.076;2023-04-02T13:02:31;97733.22;;;-145.95;36.96
37648;BME280;23490;53.656;10.076;2023-04-02T13:05:00;98026.34;;;-145.95;39.71
37648;BME280;23490;53.656;10.076;2023-04-02T13:07:30;97947.88;;;-145.95;38.49
37648;BME280;23490;53.656;10.076;2023-04-02T13:10:02;98063.50;;;-145.95;39.97
37648;BME280;23490;53.656;10.076;2023-04-02T13:12:33;97826.09;;;-145.95;39.39
37648;BME280;23490;53.656;10.076;2023-04-02T13:15:08;98016.00;;;-145.95;39.62
37648;BME280;23490;53.656;10.076;2023-04-02T13:17:46;97993.31;;;-145.95;39.01
37648;BME280;23490;53.656;10.076;2023-04-02T13:22:59;97910.72;;;-145.95;38.79
37648;BME280;23490;53.656;10.076;2023-04-02T13:25:30;98080.00;;;-145.95;38.87
37648;BME280;23490;53.656;10.076;2023-04-02T13:27:56;97960.28;;;-145.95;37.93
37648;BME280;23490;53.656;10.076;2023-04-02T13:30:25;97956.16;;;-145.95;37.43
37648;BME280;23490;53.656;10.076;2023-04-02T13:32:51;98063.50;;;-145.95;40.67
37648;BME280;23490;53.656;10.076;2023-04-02T13:35:16;98129.56;;;-145.95;39.42
37648;BME280;23490;53.656;10.076;2023-04-02T13:37:42;98049.03;;;-145.95;38.44
37648;BME280;23490;53.656;10.076;2023-04-02T13:40:16;98166.72;;;-145.95;39.26
37648;BME280;23490;53.656;10.076;2023-04-02T13:42:44;98220.38;;;-145.95;39.92
37648;BME280;23490;53.656;10.076;2023-04-02T13:47:46;98121.28;;;-145.95;40.12
37648;BME280;23490;53.656;10.076;2023-04-02T13:50:16;98208.00;;;-145.95;41.67
37648;BME280;23490;53.656;10.076;2023-04-02T13:52:41;97985.03;;;-145.95;38.88
37648;BME280;23490;53.656;10.076;2023-04-02T13:55:07;98055.22;;;-145.95;39.13
37648;BME280;23490;53.656;10.076;2023-04-02T13:57:34;98108.91;;;-145.95;38.96
37648;BME280;23490;53.656;10.076;2023-04-02T14:00:00;98282.31;;;-145.95;40.34
37648;BME280;23490;53.656;10.076;2023-04-02T14:02:26;98179.09;;;-145.95;41.21
37648;BME280;23490;53.656;10.076;2023-04-02T14:05:13;98146.06;;;-145.95;39.66
37648;BME280;23490;53.656;10.076;2023-04-02T14:10:25;98129.56;;;-145.95;41.17
37648;BME280;23490;53.656;10.076;2023-04-02T14:13:16;98059.38;;;-145.95;39.26
37648;BME280;23490;53.656;10.076;2023-04-02T14:15:50;98177.03;;;-145.95;41.38
37648;BME280;23490;53.656;10.076;2023-04-02T14:21:34;98195.63;;;-145.95;40.50
37648;BME280;23490;53.656;10.076;2023-04-02T14:24:15;98329.81;;;-145.95;41.87
37648;BME280;23490;53.656;10.076;2023-04-02T14:26:54;98876.97;;;-145.95;44.31
37648;BME280;23490;53.656;10.076;2023-04-02T14:29:34;98455.75;;;-145.95;43.88
37648;BME280;23490;53.656;10.076;2023-04-02T14:32:09;98418.59;;;-145.95;42.88
37648;BME280;23490;53.656;10.076;2023-04-02T14:37:16;98740.69;;;-145.95;45.11
37648;BME280;23490;53.656;10.076;2023-04-02T14:40:16;98769.59;;;-145.95;46.80
37648;BME280;23490;53.656;10.076;2023-04-02T14:42:49;98734.50;;;-145.95;47.17
37648;BME280;23490;53.656;10.076;2023-04-02T14:47:49;98988.47;;;-145.95;46.50
37648;BME280;23490;53.656;10.076;2023-04-02T14:50:19;99075.19;;;-145.95;49.10
37648;BME280;23490;53.656;10.076;2023-04-02T14:52:50;99172.25;;;-145.95;51.17
37648;BME280;23490;53.656;10.076;2023-04-02T14:55:35;99211.50;;;-145.95;51.35
37648;BME280;23490;53.656;10.076;2023-04-02T14:58:13;99013.25;;;-145.95;50.83
37648;BME280;23490;53.656;10.076;2023-04-02T15:00:40;98959.56;;;-145.95;48.40
37648;BME280;23490;53.656;10.076;2023-04-02T15:03:20;98881.09;;;-145.95;47.88
37648;BME280;23490;53.656;10.076;2023-04-02T15:05:49;98897.63;;;-145.95;48.78
37648;BME280;23490;53.656;10.076;2023-04-02T15:11:01;99180.50;;;-145.95;50.21
37648;BME280;23490;53.656;10.076;2023-04-02T15:13:37;99141.28;;;-145.95;51.40
37648;BME280;23490;53.656;10.076;2023-04-02T15:16:08;99126.81;;;-145.95;49.73
37648;BME280;23490;53.656;10.076;2023-04-02T15:18:36;99091.72;;;-145.95;49.66
37648;BME280;23490;53.656;10.076;2023-04-02T15:24:01;99211.50;;;-145.95;51.81
37648;BME280;23490;53.656;10.076;2023-04-02T15:31:53;99219.75;;;-145.95;51.22
37648;BME280;23490;53.656;10.076;2023-04-02T15:34:38;99190.84;;;-145.95;51.40